sensor_id;sensor_type;location;lat;lon;timestamp;P1;durP1;ratioP1;P2;durP2;ratioP2
73150;SDS011;61354;50.758;6.106;2023-04-03T00:00:47;3.13;;;2.05;;
73150;SDS011;61354;50.758;6.106;2023-04-03T00:03:14;3.72;;;2.22;;
73150;SDS011;61354;50.758;6.106;2023-04-03T00:05:40;3.42;;;2.25;;
73150;SDS011;61354;50.758;6.106;2023-04-03T00:08:06;2.45;;;1.95;;
73150;SDS011;61354;50.758;6.106;2023-04-03T00:10:35;3.28;;;1.88;;
73150;SDS011;61354;50.758;6.106;2023-04-03T00:13:02;3.72;;;1.70;;
73150;SDS011;61354;50.758;6.106;2023-04-03T00:15:31;3.13;;;2.10;;
73150;SDS011;61354;50.758;6.106;2023-04-03T00:17:57;4.43;;;1.73;;
73150;SDS011;61354;50.758;6.106;2023-04-03T00:20:22;3.60;;;1.70;;
73150;SDS011;61354;50.758;6.106;2023-04-03T00:22:48;3.65;;;1.92;;
73150;SDS011;61354;50.758;6.106;2023-04-03T00:25:14;2.60;;;1.60;;
73150;SDS011;61354;50.758;6.106;2023-04-03T00:27:39;2.42;;;1.70;;
73150;SDS011;61354;50.758;6.106;2023-04-03T00:30:07;3.40;;;1.92;;
73150;SDS011;61354;50.758;6.106;2023-04-03T00:32:36;2.40;;;1.60;;
73150;SDS011;61354;50.758;6.106;2023-04-03T00:35:01;2.55;;;1.77;;
73150;SDS011;61354;50.758;6.106;2023-04-03T00:37:27;3.65;;;2.00;;
73150;SDS011;61354;50.758;6.106;2023-04-03T00:39:53;2.65;;;1.73;;
73150;SDS011;61354;50.758;6.106;2023-04-03T00:42:19;2.95;;;1.73;;
73150;SDS011;61354;50.758;6.106;2023-04-03T00:47:11;3.25;;;1.67;;
73150;SDS011;61354;50.758;6.106;2023-04-03T00:49:38;4.13;;;1.95;;
73150;SDS011;61354;50.758;6.106;2023-04-03T00:52:05;4.55;;;1.90;;
73150;SDS011;61354;50.758;6.106;2023-04-03T00:54:34;4.18;;;1.85;;
73150;SDS011;61354;50.758;6.106;2023-04-03T00:57:02;2.90;;;1.73;;
73150;SDS011;61354;50.758;6.106;2023-04-03T00:59:32;3.67;;;1.90;;
73150;SDS011;61354;50.758;6.106;2023-04-03T01:02:01;3.15;;;1.75;;
73150;SDS011;61354;50.758;6.106;2023-04-03T01:04:34;3.67;;;1.90;;
73150;SDS011;61354;50.758;6.106;2023-04-03T01:07:08;3.30;;;1.73;;
73150;SDS011;61354;50.758;6.106;2023-04-03T01:09:37;2.78;;;1.83;;
73150;SDS011;61354;50.758;6.106;2023-04-03T01:12:21;2.38;;;1.50;;
73150;SDS011;61354;50.758;6.106;2023-04-03T01:14:52;5.20;;;1.98;;
73150;SDS011;61354;50.758;6.106;2023-04-03T01:25:35;3.15;;;1.77;;
73150;SDS011;61354;50.758;6.106;2023-04-03T01:28:03;2.92;;;1.60;;
73150;SDS011;61354;50.758;6.106;2023-04-03T01:30:32;2.78;;;2.00;;
73150;SDS011;61354;50.758;6.106;2023-04-03T01:33:00;2.90;;;1.75;;
73150;SDS011;61354;50.758;6.106;2023-04-03T01:35:26;4.97;;;2.00;;
73150;SDS011;61354;50.758;6.106;2023-04-03T01:37:52;3.10;;;1.55;;
73150;SDS011;61354;50.758;6.106;2023-04-03T01:40:17;3.17;;;1.50;;
73150;SDS011;61354;50.758;6.106;2023-04-03T01:42:43;3.17;;;1.80;;
73150;SDS011;61354;50.758;6.106;2023-04-03T01:45:09;3.17;;;2.03;;
73150;SDS011;61354;50.758;6.106;2023-04-03T01:47:35;2.95;;;1.85;;
73150;SDS011;61354;50.758;6.106;2023-04-03T01:50:00;3.92;;;1.80;;
73150;SDS011;61354;50.758;6.106;2023-04-03T01:52:26;5.30;;;2.13;;
73150;SDS011;61354;50.758;6.106;2023-04-03T01:54:51;3.70;;;2.10;;
73150;SDS011;61354;50.758;6.106;2023-04-03T01:57:17;2.55;;;1.65;;
73150;SDS011;61354;50.758;6.106;2023-04-03T01:59:43;3.00;;;1.67;;
73150;SDS011;61354;50.758;6.106;2023-04-03T02:02:08;3.28;;;1.80;;
73150;SDS011;61354;50.758;6.106;2023-04-03T02:04:34;3.47;;;2.30;;
73150;SDS011;61354;50.758;6.106;2023-04-03T02:07:00;3.13;;;1.67;;
73150;SDS011;61354;50.758;6.106;2023-04-03T02:09:25;5.05;;;1.90;;
73150;SDS011;61354;50.758;6.106;2023-04-03T02:11:52;4.03;;;1.80;;
73150;SDS011;61354;50.758;6.106;2023-04-03T02:14:18;4.20;;;2.25;;
73150;SDS011;61354;50.758;6.106;2023-04-03T02:16:43;3.90;;;2.30;;
73150;SDS011;61354;50.758;6.106;2023-04-03T02:19:09;2.92;;;1.80;;
73150;SDS011;61354;50.758;6.106;2023-04-03T02:21:35;3.22;;;1.90;;
73150;SDS011;61354;50.758;6.106;2023-04-03T02:24:00;2.97;;;1.98;;
73150;SDS011;61354;50.758;6.106;2023-04-03T02:26:26;3.45;;;2.10;;
73150;SDS011;61354;50.758;6.106;2023-04-03T02:28:51;2.83;;;2.20;;
73150;SDS011;61354;50.758;6.106;2023-04-03T02:31:17;2.30;;;1.63;;
73150;SDS011;61354;50.758;6.106;2023-04-03T02:33:43;2.78;;;1.77;;
73150;SDS011;61354;50.758;6.106;2023-04-03T02:36:09;4.07;;;1.80;;
73150;SDS011;61354;50.758;6.106;2023-04-03T02:38:35;4.07;;;2.33;;
73150;SDS011;61354;50.758;6.106;2023-04-03T02:41:02;3.17;;;1.98;;
73150;SDS011;61354;50.758;6.106;2023-04-03T02:48:21;3.70;;;1.90;;
73150;SDS011;61354;50.758;6.106;2023-04-03T02:50:47;3.60;;;2.15;;
73150;SDS011;61354;50.758;6.106;2023-04-03T02:53:13;4.13;;;2.30;;
73150;SDS011;61354;50.758;6.106;2023-04-03T02:55:38;3.40;;;2.10;;
73150;SDS011;61354;50.758;6.106;2023-04-03T02:58:04;3.65;;;2.15;;
73150;SDS011;61354;50.758;6.106;2023-04-03T03:00:29;5.53;;;2.25;;
73150;SDS011;61354;50.758;6.106;2023-04-03T03:02:55;3.83;;;2.42;;
73150;SDS011;61354;50.758;6.106;2023-04-03T03:05:20;3.00;;;2.00;;
73150;SDS011;61354;50.758;6.106;2023-04-03T03:07:47;3.78;;;1.92;;
73150;SDS011;61354;50.758;6.106;2023-04-03T03:10:13;3.55;;;2.00;;
73150;SDS011;61354;50.758;6.106;2023-04-03T03:12:39;3.25;;;1.90;;
73150;SDS011;61354;50.758;6.106;2023-04-03T03:15:06;3.65;;;2.15;;
73150;SDS011;61354;50.758;6.106;2023-04-03T03:17:32;4.78;;;2.20;;
73150;SDS011;61354;50.758;6.106;2023-04-03T03:19:57;3.38;;;2.30;;
73150;SDS011;61354;50.758;6.106;2023-04-03T03:22:23;3.22;;;2.13;;
73150;SDS011;61354;50.758;6.106;2023-04-03T03:24:50;5.15;;;2.60;;
73150;SDS011;61354;50.758;6.106;2023-04-03T03:27:15;4.28;;;2.55;;
73150;SDS011;61354;50.758;6.106;2023-04-03T03:29:41;3.33;;;2.30;;
73150;SDS011;61354;50.758;6.106;2023-04-03T03:32:07;3.85;;;1.90;;
73150;SDS011;61354;50.758;6.106;2023-04-03T03:34:33;4.18;;;2.70;;
73150;SDS011;61354;50.758;6.106;2023-04-03T03:36:59;4.10;;;2.10;;
73150;SDS011;61354;50.758;6.106;2023-04-03T03:39:24;5.38;;;2.30;;
73150;SDS011;61354;50.758;6.106;2023-04-03T03:41:53;3.83;;;2.00;;
73150;SDS011;61354;50.758;6.106;2023-04-03T03:49:09;3.00;;;2.10;;
73150;SDS011;61354;50.758;6.106;2023-04-03T03:51:36;2.78;;;2.05;;
73150;SDS011;61354;50.758;6.106;2023-04-03T03:54:03;3.20;;;1.95;;
73150;SDS011;61354;50.758;6.106;2023-04-03T03:56:29;3.55;;;1.90;;
73150;SDS011;61354;50.758;6.106;2023-04-03T03:58:54;2.95;;;2.10;;
73150;SDS011;61354;50.758;6.106;2023-04-03T04:01:21;3.72;;;2.05;;
73150;SDS011;61354;50.758;6.106;2023-04-03T04:03:48;4.75;;;2.53;;
73150;SDS011;61354;50.758;6.106;2023-04-03T04:06:14;3.05;;;2.17;;
73150;SDS011;61354;50.758;6.106;2023-04-03T04:08:39;3.45;;;2.30;;
73150;SDS011;61354;50.758;6.106;2023-04-03T04:11:05;6.32;;;2.80;;
73150;SDS011;61354;50.758;6.106;2023-04-03T04:13:32;6.28;;;2.70;;
73150;SDS011;61354;50.758;6.106;2023-04-03T04:15:57;4.68;;;2.88;;
73150;SDS011;61354;50.758;6.106;2023-04-03T04:18:23;4.57;;;3.35;;
73150;SDS011;61354;50.758;6.106;2023-04-03T04:20:49;5.18;;;2.72;;
73150;SDS011;61354;50.758;6.106;2023-04-03T04:23:16;3.58;;;2.40;;
73150;SDS011;61354;50.758;6.106;2023-04-03T04:25:43;4.05;;;2.38;;
73150;SDS011;61354;50.758;6.106;2023-04-03T04:28:13;5.25;;;2.40;;
73150;SDS011;61354;50.758;6.106;2023-04-03T04:30:39;6.82;;;2.53;;
73150;SDS011;61354;50.758;6.106;2023-04-03T04:33:04;5.38;;;2.45;;
73150;SDS011;61354;50.758;6.106;2023-04-03T04:35:30;5.95;;;3.10;;
73150;SDS011;61354;50.758;6.106;2023-04-03T04:37:56;6.47;;;3.15;;
73150;SDS011;61354;50.758;6.106;2023-04-03T04:40:21;6.72;;;3.22;;
73150;SDS011;61354;50.758;6.106;2023-04-03T04:42:47;7.40;;;3.17;;
73150;SDS011;61354;50.758;6.106;2023-04-03T04:45:13;6.03;;;4.05;;
73150;SDS011;61354;50.758;6.106;2023-04-03T04:47:40;5.63;;;3.15;;
73150;SDS011;61354;50.758;6.106;2023-04-03T04:50:06;5.90;;;3.63;;
73150;SDS011;61354;50.758;6.106;2023-04-03T04:52:32;5.30;;;3.33;;
73150;SDS011;61354;50.758;6.106;2023-04-03T04:54:57;5.70;;;3.20;;
73150;SDS011;61354;50.758;6.106;2023-04-03T04:57:23;3.80;;;2.35;;
73150;SDS011;61354;50.758;6.106;2023-04-03T04:59:48;6.82;;;3.03;;
73150;SDS011;61354;50.758;6.106;2023-04-03T05:02:14;4.90;;;2.90;;
73150;SDS011;61354;50.758;6.106;2023-04-03T05:04:40;4.55;;;2.95;;
73150;SDS011;61354;50.758;6.106;2023-04-03T05:07:05;6.47;;;3.35;;
73150;SDS011;61354;50.758;6.106;2023-04-03T05:09:31;7.95;;;3.10;;
73150;SDS011;61354;50.758;6.106;2023-04-03T05:11:57;5.60;;;3.35;;
73150;SDS011;61354;50.758;6.106;2023-04-03T05:14:22;7.53;;;3.55;;
73150;SDS011;61354;50.758;6.106;2023-04-03T05:16:48;6.18;;;3.22;;
73150;SDS011;61354;50.758;6.106;2023-04-03T05:19:18;5.07;;;3.30;;
73150;SDS011;61354;50.758;6.106;2023-04-03T05:21:44;6.43;;;3.53;;
73150;SDS011;61354;50.758;6.106;2023-04-03T05:24:09;5.28;;;3.08;;
73150;SDS011;61354;50.758;6.106;2023-04-03T05:26:35;5.93;;;3.53;;
73150;SDS011;61354;50.758;6.106;2023-04-03T05:29:00;5.85;;;3.30;;
73150;SDS011;61354;50.758;6.106;2023-04-03T05:31:26;6.47;;;3.67;;
73150;SDS011;61354;50.758;6.106;2023-04-03T05:33:54;7.93;;;3.58;;
73150;SDS011;61354;50.758;6.106;2023-04-03T05:36:20;5.25;;;3.55;;
73150;SDS011;61354;50.758;6.106;2023-04-03T05:38:46;5.35;;;3.20;;
73150;SDS011;61354;50.758;6.106;2023-04-03T05:41:12;8.25;;;3.15;;
73150;SDS011;61354;50.758;6.106;2023-04-03T05:43:38;4.93;;;3.45;;
73150;SDS011;61354;50.758;6.106;2023-04-03T05:46:06;8.68;;;3.75;;
73150;SDS011;61354;50.758;6.106;2023-04-03T05:48:34;6.88;;;3.08;;
73150;SDS011;61354;50.758;6.106;2023-04-03T05:51:00;5.10;;;3.17;;
73150;SDS011;61354;50.758;6.106;2023-04-03T05:53:27;5.85;;;3.50;;
73150;SDS011;61354;50.758;6.106;2023-04-03T05:55:54;6.43;;;3.65;;
73150;SDS011;61354;50.758;6.106;2023-04-03T05:58:20;5.93;;;3.55;;
73150;SDS011;61354;50.758;6.106;2023-04-03T06:00:46;8.18;;;3.60;;
73150;SDS011;61354;50.758;6.106;2023-04-03T06:03:11;6.78;;;4.13;;
73150;SDS011;61354;50.758;6.106;2023-04-03T06:05:37;8.15;;;3.95;;
73150;SDS011;61354;50.758;6.106;2023-04-03T06:08:02;6.82;;;3.58;;
73150;SDS011;61354;50.758;6.106;2023-04-03T06:10:28;5.68;;;3.88;;
73150;SDS011;61354;50.758;6.106;2023-04-03T06:12:54;9.82;;;3.90;;
73150;SDS011;61354;50.758;6.106;2023-04-03T06:15:20;6.28;;;4.50;;
73150;SDS011;61354;50.758;6.106;2023-04-03T06:17:46;7.13;;;4.50;;
73150;SDS011;61354;50.758;6.106;2023-04-03T06:20:12;8.30;;;4.07;;
73150;SDS011;61354;50.758;6.106;2023-04-03T06:22:37;7.72;;;4.07;;
73150;SDS011;61354;50.758;6.106;2023-04-03T06:25:03;4.90;;;3.45;;
73150;SDS011;61354;50.758;6.106;2023-04-03T06:27:30;5.55;;;4.03;;
73150;SDS011;61354;50.758;6.106;2023-04-03T06:29:55;6.65;;;4.93;;
73150;SDS011;61354;50.758;6.106;2023-04-03T06:32:21;10.73;;;4.78;;
73150;SDS011;61354;50.758;6.106;2023-04-03T06:34:47;8.07;;;4.28;;
73150;SDS011;61354;50.758;6.106;2023-04-03T06:37:16;6.57;;;4.65;;
73150;SDS011;61354;50.758;6.106;2023-04-03T06:39:43;6.38;;;4.05;;
73150;SDS011;61354;50.758;6.106;2023-04-03T06:42:10;6.75;;;3.92;;
73150;SDS011;61354;50.758;6.106;2023-04-03T06:44:36;9.27;;;4.10;;
73150;SDS011;61354;50.758;6.106;2023-04-03T06:47:02;6.10;;;4.57;;
73150;SDS011;61354;50.758;6.106;2023-04-03T06:49:28;5.72;;;3.92;;
73150;SDS011;61354;50.758;6.106;2023-04-03T06:51:54;7.32;;;4.35;;
73150;SDS011;61354;50.758;6.106;2023-04-03T06:54:21;6.20;;;3.60;;
73150;SDS011;61354;50.758;6.106;2023-04-03T06:56:48;6.63;;;4.60;;
73150;SDS011;61354;50.758;6.106;2023-04-03T06:59:14;7.43;;;4.63;;
73150;SDS011;61354;50.758;6.106;2023-04-03T07:01:40;5.43;;;3.60;;
73150;SDS011;61354;50.758;6.106;2023-04-03T07:04:06;6.18;;;3.90;;
73150;SDS011;61354;50.758;6.106;2023-04-03T07:06:32;6.00;;;3.97;;
73150;SDS011;61354;50.758;6.106;2023-04-03T07:08:59;4.75;;;3.95;;
73150;SDS011;61354;50.758;6.106;2023-04-03T07:11:25;5.80;;;3.72;;
73150;SDS011;61354;50.758;6.106;2023-04-03T07:13:51;7.60;;;3.60;;
73150;SDS011;61354;50.758;6.106;2023-04-03T07:16:18;5.45;;;3.60;;
73150;SDS011;61354;50.758;6.106;2023-04-03T07:18:44;4.70;;;3.47;;
73150;SDS011;61354;50.758;6.106;2023-04-03T07:21:10;6.65;;;3.58;;
73150;SDS011;61354;50.758;6.106;2023-04-03T07:23:35;5.93;;;3.70;;
73150;SDS011;61354;50.758;6.106;2023-04-03T07:26:01;5.50;;;3.47;;
73150;SDS011;61354;50.758;6.106;2023-04-03T07:28:27;6.05;;;3.33;;
73150;SDS011;61354;50.758;6.106;2023-04-03T07:30:54;6.18;;;3.28;;
73150;SDS011;61354;50.758;6.106;2023-04-03T07:33:25;4.78;;;3.25;;
73150;SDS011;61354;50.758;6.106;2023-04-03T07:35:51;6.00;;;3.08;;
73150;SDS011;61354;50.758;6.106;2023-04-03T07:38:16;6.57;;;2.75;;
73150;SDS011;61354;50.758;6.106;2023-04-03T07:40:49;5.63;;;3.08;;
73150;SDS011;61354;50.758;6.106;2023-04-03T07:43:18;4.97;;;2.67;;
73150;SDS011;61354;50.758;6.106;2023-04-03T07:45:45;6.32;;;2.92;;
73150;SDS011;61354;50.758;6.106;2023-04-03T07:48:14;5.80;;;2.72;;
73150;SDS011;61354;50.758;6.106;2023-04-03T07:50:41;5.22;;;2.75;;
73150;SDS011;61354;50.758;6.106;2023-04-03T07:53:07;4.50;;;2.65;;
73150;SDS011;61354;50.758;6.106;2023-04-03T07:55:33;3.78;;;2.47;;
73150;SDS011;61354;50.758;6.106;2023-04-03T07:57:59;4.72;;;2.38;;
73150;SDS011;61354;50.758;6.106;2023-04-03T08:00:24;4.63;;;2.55;;
73150;SDS011;61354;50.758;6.106;2023-04-03T08:02:50;3.92;;;2.25;;
73150;SDS011;61354;50.758;6.106;2023-04-03T08:05:17;3.22;;;2.05;;
73150;SDS011;61354;50.758;6.106;2023-04-03T08:07:44;3.72;;;2.20;;
73150;SDS011;61354;50.758;6.106;2023-04-03T08:10:10;4.18;;;2.10;;
73150;SDS011;61354;50.758;6.106;2023-04-03T08:12:36;5.15;;;2.40;;
73150;SDS011;61354;50.758;6.106;2023-04-03T08:15:02;4.25;;;2.35;;
73150;SDS011;61354;50.758;6.106;2023-04-03T08:17:28;4.15;;;2.10;;
73150;SDS011;61354;50.758;6.106;2023-04-03T08:19:54;4.15;;;2.40;;
73150;SDS011;61354;50.758;6.106;2023-04-03T08:22:20;5.20;;;2.25;;
73150;SDS011;61354;50.758;6.106;2023-04-03T08:24:46;4.90;;;2.22;;
73150;SDS011;61354;50.758;6.106;2023-04-03T08:27:11;4.05;;;2.00;;
73150;SDS011;61354;50.758;6.106;2023-04-03T08:29:37;4.35;;;2.42;;
73150;SDS011;61354;50.758;6.106;2023-04-03T08:32:03;4.38;;;2.60;;
73150;SDS011;61354;50.758;6.106;2023-04-03T08:34:30;5.38;;;2.10;;
73150;SDS011;61354;50.758;6.106;2023-04-03T08:37:00;5.03;;;2.20;;
73150;SDS011;61354;50.758;6.106;2023-04-03T08:39:26;5.78;;;2.35;;
73150;SDS011;61354;50.758;6.106;2023-04-03T08:41:52;3.88;;;2.03;;
73150;SDS011;61354;50.758;6.106;2023-04-03T08:44:39;4.30;;;2.22;;
73150;SDS011;61354;50.758;6.106;2023-04-03T08:47:20;5.10;;;2.35;;
73150;SDS011;61354;50.758;6.106;2023-04-03T08:52:41;3.65;;;2.33;;
73150;SDS011;61354;50.758;6.106;2023-04-03T08:55:45;4.55;;;2.13;;
73150;SDS011;61354;50.758;6.106;2023-04-03T09:00:43;3.67;;;2.17;;
73150;SDS011;61354;50.758;6.106;2023-04-03T09:03:13;4.65;;;2.10;;
73150;SDS011;61354;50.758;6.106;2023-04-03T09:08:28;6.93;;;2.72;;
73150;SDS011;61354;50.758;6.106;2023-04-03T09:22:13;3.65;;;2.10;;
73150;SDS011;61354;50.758;6.106;2023-04-03T09:24:57;4.85;;;2.35;;
73150;SDS011;61354;50.758;6.106;2023-04-03T09:27:27;6.47;;;2.55;;
73150;SDS011;61354;50.758;6.106;2023-04-03T09:29:53;6.43;;;2.70;;
73150;SDS011;61354;50.758;6.106;2023-04-03T09:32:28;6.38;;;2.83;;
73150;SDS011;61354;50.758;6.106;2023-04-03T09:35:04;4.28;;;2.22;;
73150;SDS011;61354;50.758;6.106;2023-04-03T09:37:45;4.07;;;2.38;;
73150;SDS011;61354;50.758;6.106;2023-04-03T09:42:51;4.18;;;1.77;;
73150;SDS011;61354;50.758;6.106;2023-04-03T09:45:28;3.58;;;1.95;;
73150;SDS011;61354;50.758;6.106;2023-04-03T09:50:34;4.55;;;2.25;;
73150;SDS011;61354;50.758;6.106;2023-04-03T09:53:05;4.13;;;2.40;;
73150;SDS011;61354;50.758;6.106;2023-04-03T09:55:33;4.85;;;2.53;;
73150;SDS011;61354;50.758;6.106;2023-04-03T09:58:11;5.85;;;3.22;;
73150;SDS011;61354;50.758;6.106;2023-04-03T10:00:56;4.38;;;2.40;;
73150;SDS011;61354;50.758;6.106;2023-04-03T10:06:21;4.20;;;3.15;;
73150;SDS011;61354;50.758;6.106;2023-04-03T10:09:49;4.45;;;2.50;;
73150;SDS011;61354;50.758;6.106;2023-04-03T10:12:08;4.57;;;2.20;;
73150;SDS011;61354;50.758;6.106;2023-04-03T10:14:38;4.43;;;2.53;;
73150;SDS011;61354;50.758;6.106;2023-04-03T10:19:50;3.45;;;2.10;;
73150;SDS011;61354;50.758;6.106;2023-04-03T10:25:04;3.97;;;2.30;;
73150;SDS011;61354;50.758;6.106;2023-04-03T10:30:28;3.50;;;2.38;;
73150;SDS011;61354;50.758;6.106;2023-04-03T10:41:05;4.45;;;1.70;;
73150;SDS011;61354;50.758;6.106;2023-04-03T10:46:38;3.88;;;1.50;;
73150;SDS011;61354;50.758;6.106;2023-04-03T10:51:45;4.22;;;1.67;;
73150;SDS011;61354;50.758;6.106;2023-04-03T10:54:19;4.38;;;1.70;;
73150;SDS011;61354;50.758;6.106;2023-04-03T10:59:44;5.05;;;1.77;;
73150;SDS011;61354;50.758;6.106;2023-04-03T11:02:27;4.95;;;1.95;;
73150;SDS011;61354;50.758;6.106;2023-04-03T11:04:59;3.22;;;1.75;;
73150;SDS011;61354;50.758;6.106;2023-04-03T11:07:29;4.15;;;1.83;;
73150;SDS011;61354;50.758;6.106;2023-04-03T11:10:21;2.75;;;1.77;;
73150;SDS011;61354;50.758;6.106;2023-04-03T11:12:52;4.32;;;1.35;;
73150;SDS011;61354;50.758;6.106;2023-04-03T11:15:24;4.25;;;1.60;;
73150;SDS011;61354;50.758;6.106;2023-04-03T11:17:54;2.92;;;1.60;;
73150;SDS011;61354;50.758;6.106;2023-04-03T11:20:32;3.13;;;1.83;;
73150;SDS011;61354;50.758;6.106;2023-04-03T11:25:39;5.13;;;1.83;;
73150;SDS011;61354;50.758;6.106;2023-04-03T11:36:28;2.85;;;1.50;;
73150;SDS011;61354;50.758;6.106;2023-04-03T11:38:59;3.40;;;1.60;;
73150;SDS011;61354;50.758;6.106;2023-04-03T11:41:32;3.10;;;1.40;;
73150;SDS011;61354;50.758;6.106;2023-04-03T11:47:01;2.65;;;1.40;;
73150;SDS011;61354;50.758;6.106;2023-04-03T12:24:23;3.50;;;1.60;;
73150;SDS011;61354;50.758;6.106;2023-04-03T12:43:01;3.30;;;1.42;;
73150;SDS011;61354;50.758;6.106;2023-04-03T12:45:30;4.32;;;1.30;;
73150;SDS011;61354;50.758;6.106;2023-04-03T12:48:15;2.28;;;1.17;;
73150;SDS011;61354;50.758;6.106;2023-04-03T12:50:43;3.40;;;1.48;;
73150;SDS011;61354;50.758;6.106;2023-04-03T12:55:53;3.33;;;1.60;;
73150;SDS011;61354;50.758;6.106;2023-04-03T12:58:26;2.45;;;1.20;;
73150;SDS011;61354;50.758;6.106;2023-04-03T13:00:59;3.20;;;1.40;;
73150;SDS011;61354;50.758;6.106;2023-04-03T13:03:26;3.67;;;1.48;;
73150;SDS011;61354;50.758;6.106;2023-04-03T13:05:54;2.85;;;1.23;;
73150;SDS011;61354;50.758;6.106;2023-04-03T13:08:27;2.38;;;1.50;;
73150;SDS011;61354;50.758;6.106;2023-04-03T13:10:55;3.38;;;1.27;;
73150;SDS011;61354;50.758;6.106;2023-04-03T13:13:22;3.28;;;1.40;;
73150;SDS011;61354;50.758;6.106;2023-04-03T13:15:48;3.03;;;1.58;;
73150;SDS011;61354;50.758;6.106;2023-04-03T13:21:08;3.90;;;1.60;;
73150;SDS011;61354;50.758;6.106;2023-04-03T13:23:48;3.95;;;1.80;;
73150;SDS011;61354;50.758;6.106;2023-04-03T13:26:17;3.45;;;1.50;;
73150;SDS011;61354;50.758;6.106;2023-04-03T13:33:54;2.03;;;1.10;;
73150;SDS011;61354;50.758;6.106;2023-04-03T13:41:44;2.25;;;1.52;;
73150;SDS011;61354;50.758;6.106;2023-04-03T13:46:46;2.15;;;1.52;;
73150;SDS011;61354;50.758;6.106;2023-04-03T13:51:53;1.70;;;1.05;;
73150;SDS011;61354;50.758;6.106;2023-04-03T13:54:21;2.38;;;1.10;;
73150;SDS011;61354;50.758;6.106;2023-04-03T13:56:56;2.10;;;1.17;;
73150;SDS011;61354;50.758;6.106;2023-04-03T13:59:24;2.10;;;1.35;;
73150;SDS011;61354;50.758;6.106;2023-04-03T14:04:33;4.82;;;1.20;;
73150;SDS011;61354;50.758;6.106;2023-04-03T14:07:10;2.70;;;1.23;;
73150;SDS011;61354;50.758;6.106;2023-04-03T14:09:41;2.30;;;0.98;;
73150;SDS011;61354;50.758;6.106;2023-04-03T14:12:30;2.08;;;1.33;;
73150;SDS011;61354;50.758;6.106;2023-04-03T14:27:20;2.22;;;1.15;;
73150;SDS011;61354;50.758;6.106;2023-04-03T14:29:51;3.03;;;1.20;;
73150;SDS011;61354;50.758;6.106;2023-04-03T14:32:19;2.25;;;1.15;;
73150;SDS011;61354;50.758;6.106;2023-04-03T14:34:46;3.15;;;1.10;;
73150;SDS011;61354;50.758;6.106;2023-04-03T14:37:14;1.92;;;1.10;;
73150;SDS011;61354;50.758;6.106;2023-04-03T14:39:42;2.50;;;1.13;;
73150;SDS011;61354;50.758;6.106;2023-04-03T14:42:13;2.90;;;1.10;;
73150;SDS011;61354;50.758;6.106;2023-04-03T14:44:40;2.55;;;1.20;;
73150;SDS011;61354;50.758;6.106;2023-04-03T14:47:10;2.58;;;1.25;;
73150;SDS011;61354;50.758;6.106;2023-04-03T14:49:37;2.85;;;1.10;;
73150;SDS011;61354;50.758;6.106;2023-04-03T14:52:03;2.72;;;1.20;;
73150;SDS011;61354;50.758;6.106;2023-04-03T14:54:28;3.17;;;1.25;;
73150;SDS011;61354;50.758;6.106;2023-04-03T14:56:55;1.73;;;1.00;;
73150;SDS011;61354;50.758;6.106;2023-04-03T14:59:22;2.95;;;1.30;;
73150;SDS011;61354;50.758;6.106;2023-04-03T15:01:48;1.98;;;1.10;;
73150;SDS011;61354;50.758;6.106;2023-04-03T15:04:18;1.70;;;1.10;;
73150;SDS011;61354;50.758;6.106;2023-04-03T15:06:46;2.63;;;1.27;;
73150;SDS011;61354;50.758;6.106;2023-04-03T15:11:49;2.67;;;1.20;;
73150;SDS011;61354;50.758;6.106;2023-04-03T15:14:16;1.63;;;0.98;;
73150;SDS011;61354;50.758;6.106;2023-04-03T15:16:45;3.00;;;1.30;;
73150;SDS011;61354;50.758;6.106;2023-04-03T15:19:10;1.48;;;1.10;;
73150;SDS011;61354;50.758;6.106;2023-04-03T15:21:37;3.45;;;1.25;;
73150;SDS011;61354;50.758;6.106;2023-04-03T15:24:03;2.95;;;1.35;;
73150;SDS011;61354;50.758;6.106;2023-04-03T15:26:29;3.25;;;1.25;;
73150;SDS011;61354;50.758;6.106;2023-04-03T15:28:56;2.22;;;1.30;;
73150;SDS011;61354;50.758;6.106;2023-04-03T15:31:22;1.65;;;1.10;;
73150;SDS011;61354;50.758;6.106;2023-04-03T15:33:48;3.45;;;1.30;;
73150;SDS011;61354;50.758;6.106;2023-04-03T15:36:13;1.77;;;1.17;;
73150;SDS011;61354;50.758;6.106;2023-04-03T15:38:45;2.33;;;1.10;;
73150;SDS011;61354;50.758;6.106;2023-04-03T15:41:10;2.17;;;1.27;;
73150;SDS011;61354;50.758;6.106;2023-04-03T15:43:36;2.80;;;1.33;;
73150;SDS011;61354;50.758;6.106;2023-04-03T15:46:02;4.07;;;1.60;;
73150;SDS011;61354;50.758;6.106;2023-04-03T15:48:29;3.72;;;1.45;;
73150;SDS011;61354;50.758;6.106;2023-04-03T15:50:54;3.85;;;1.40;;
73150;SDS011;61354;50.758;6.106;2023-04-03T15:53:20;6.93;;;2.60;;
73150;SDS011;61354;50.758;6.106;2023-04-03T15:55:46;4.07;;;1.90;;
73150;SDS011;61354;50.758;6.106;2023-04-03T15:58:11;2.58;;;1.50;;
73150;SDS011;61354;50.758;6.106;2023-04-03T16:00:37;2.60;;;1.20;;
73150;SDS011;61354;50.758;6.106;2023-04-03T16:03:21;3.03;;;1.30;;
73150;SDS011;61354;50.758;6.106;2023-04-03T16:05:49;3.80;;;1.48;;
73150;SDS011;61354;50.758;6.106;2023-04-03T16:08:15;2.22;;;1.15;;
73150;SDS011;61354;50.758;6.106;2023-04-03T16:10:43;2.67;;;1.45;;
73150;SDS011;61354;50.758;6.106;2023-04-03T16:13:11;2.55;;;1.33;;
73150;SDS011;61354;50.758;6.106;2023-04-03T16:15:36;2.92;;;1.27;;
73150;SDS011;61354;50.758;6.106;2023-04-03T16:18:03;3.60;;;1.52;;
73150;SDS011;61354;50.758;6.106;2023-04-03T16:20:29;2.70;;;1.60;;
73150;SDS011;61354;50.758;6.106;2023-04-03T16:22:56;3.08;;;1.30;;
73150;SDS011;61354;50.758;6.106;2023-04-03T16:25:24;2.05;;;1.20;;
73150;SDS011;61354;50.758;6.106;2023-04-03T16:27:50;2.42;;;1.30;;
73150;SDS011;61354;50.758;6.106;2023-04-03T16:30:15;2.67;;;1.23;;
73150;SDS011;61354;50.758;6.106;2023-04-03T16:32:41;3.33;;;1.30;;
73150;SDS011;61354;50.758;6.106;2023-04-03T16:35:07;2.70;;;1.25;;
73150;SDS011;61354;50.758;6.106;2023-04-03T16:37:36;3.05;;;1.20;;
73150;SDS011;61354;50.758;6.106;2023-04-03T16:40:02;2.15;;;1.15;;
73150;SDS011;61354;50.758;6.106;2023-04-03T16:42:28;2.60;;;1.20;;
73150;SDS011;61354;50.758;6.106;2023-04-03T16:44:54;2.30;;;1.35;;
73150;SDS011;61354;50.758;6.106;2023-04-03T16:47:19;3.40;;;1.30;;
73150;SDS011;61354;50.758;6.106;2023-04-03T16:49:45;2.13;;;1.15;;
73150;SDS011;61354;50.758;6.106;2023-04-03T16:52:12;2.80;;;1.30;;
73150;SDS011;61354;50.758;6.106;2023-04-03T16:54:39;2.78;;;1.35;;
73150;SDS011;61354;50.758;6.106;2023-04-03T16:57:04;4.00;;;1.58;;
73150;SDS011;61354;50.758;6.106;2023-04-03T16:59:30;3.38;;;1.60;;
73150;SDS011;61354;50.758;6.106;2023-04-03T17:01:55;5.10;;;2.38;;
73150;SDS011;61354;50.758;6.106;2023-04-03T17:04:21;4.38;;;1.70;;
73150;SDS011;61354;50.758;6.106;2023-04-03T17:06:46;5.05;;;1.67;;
73150;SDS011;61354;50.758;6.106;2023-04-03T17:09:12;4.90;;;1.88;;
73150;SDS011;61354;50.758;6.106;2023-04-03T17:11:38;3.83;;;1.33;;
73150;SDS011;61354;50.758;6.106;2023-04-03T17:14:04;3.20;;;1.90;;
73150;SDS011;61354;50.758;6.106;2023-04-03T17:16:31;3.13;;;1.35;;
73150;SDS011;61354;50.758;6.106;2023-04-03T17:18:59;2.38;;;1.38;;
73150;SDS011;61354;50.758;6.106;2023-04-03T17:21:25;3.40;;;1.58;;
73150;SDS011;61354;50.758;6.106;2023-04-03T17:23:53;3.03;;;1.40;;
73150;SDS011;61354;50.758;6.106;2023-04-03T17:26:22;3.20;;;1.67;;
73150;SDS011;61354;50.758;6.106;2023-04-03T17:28:50;3.38;;;1.45;;
73150;SDS011;61354;50.758;6.106;2023-04-03T17:31:16;3.78;;;1.65;;
73150;SDS011;61354;50.758;6.106;2023-04-03T17:33:42;4.82;;;1.77;;
73150;SDS011;61354;50.758;6.106;2023-04-03T17:36:07;4.70;;;1.90;;
73150;SDS011;61354;50.758;6.106;2023-04-03T17:38:33;2.53;;;1.42;;
73150;SDS011;61354;50.758;6.106;2023-04-03T17:41:00;2.75;;;1.50;;
73150;SDS011;61354;50.758;6.106;2023-04-03T17:43:28;2.78;;;1.20;;
73150;SDS011;61354;50.758;6.106;2023-04-03T17:45:58;3.47;;;1.40;;
73150;SDS011;61354;50.758;6.106;2023-04-03T17:48:30;3.00;;;1.52;;